Eric R. Thornton — WDH3837 — position and weather

sailwx.info

Track history (hours):
 
Tides and Currents Weather Stations Pressure Air Temp Water Temp Dewpoint Dewpoint Depression Visibility Wind Speed Wind Dir Waves Ship Positions

Eric R. Thornton

Owner: Marine Steel Transport Line, LLC, Allendale, NJ. More information available from US FCC via Universal Licensing System and Coast Guard Vessel Documentation Center.

Last reported at 2017-Dec-16 02:39 UTC. Time now 2017-Dec-17 23:35 UTC.
Position N 40°38' W 074°09'.

Length 29 m; draft 3.2 m.

Type: Tug. MMSI: 367611450.

Date/timePositionNaut miles runAvg speedWind from/ knotsBaromVisibWave heightAir tempDewpointWater temp
2017-Dec-16 02:39N 40°38' W 074°09'0 0.5
2017-Dec-16 02:30N 40°38' W 074°09'3 6.4
2017-Dec-16 02:00N 40°41' W 074°08'1 1.2
2017-Dec-16 01:30N 40°42' W 074°09'1 2.9
2017-Dec-16 01:00N 40°40' W 074°08'2 4.6
2017-Dec-16 00:30N 40°38' W 074°09'0 0.0
2017-Dec-15 23:54N 40°38' W 074°09'0 0.0
2017-Dec-15 22:01N 40°38' W 074°09'0 0.0
2017-Dec-15 21:55N 40°38' W 074°09'0 0.0
2017-Dec-15 21:25N 40°38' W 074°09'0 0.0
2017-Dec-15 20:49N 40°38' W 074°09'0 0.0
2017-Dec-15 20:25N 40°38' W 074°09'0 0.0
2017-Dec-15 19:55N 40°38' W 074°09'0 0.0
2017-Dec-15 19:19N 40°38' W 074°09'0 0.0
2017-Dec-15 17:52N 40°38' W 074°09'0 0.0
2017-Dec-15 17:28N 40°38' W 074°09'0 0.0
2017-Dec-15 16:55N 40°38' W 074°09'0 0.0
2017-Dec-15 16:25N 40°38' W 074°09'0 0.0
2017-Dec-15 15:43N 40°38' W 074°09'0 0.0
2017-Dec-15 15:28N 40°38' W 074°09'0 0.0
2017-Dec-15 14:58N 40°38' W 074°09'0 0.0
2017-Dec-15 14:22N 40°38' W 074°09'0 0.0
2017-Dec-15 13:58N 40°38' W 074°09'0 0.0
2017-Dec-15 12:28N 40°38' W 074°09'0 0.0
2017-Dec-15 11:58N 40°38' W 074°09'0 0.0
2017-Dec-15 11:28N 40°38' W 074°09'0 0.0
2017-Dec-15 10:52N 40°38' W 074°09'0 0.0
2017-Dec-15 10:22N 40°38' W 074°09'0 0.0
2017-Dec-15 09:58N 40°38' W 074°09'0 0.0
2017-Dec-15 09:22N 40°38' W 074°09'0 0.0
2017-Dec-15 08:58N 40°38' W 074°09'0 0.0
2017-Dec-15 08:28N 40°38' W 074°09'0 0.0
2017-Dec-15 07:58N 40°38' W 074°09'0 0.0
2017-Dec-15 07:28N 40°38' W 074°09'0 0.0
2017-Dec-15 06:58N 40°38' W 074°09'0 0.0
2017-Dec-15 06:30N 40°38' W 074°09'2 4.7
2017-Dec-15 06:00N 40°40' W 074°08'1 2.0
2017-Dec-15 05:30N 40°41' W 074°08'3 5.2
2017-Dec-15 05:00N 40°39' W 074°09'2 4.7
2017-Dec-15 04:30N 40°39' W 074°06'3 5.3
2017-Dec-15 04:01N 40°40' W 074°03'6 4.1
2017-Dec-15 02:30N 40°43' W 073°56'0 0.1
2017-Dec-15 01:00N 40°43' W 073°55'0 0.5
2017-Dec-15 00:30N 40°43' W 073°56'12 1.9
2017-Dec-14 18:21N 40°38' W 074°09'0 1.1
2017-Dec-14 18:00N 40°39' W 074°10'1 2.8
2017-Dec-14 17:28N 40°38' W 074°12'0 0.1
2017-Dec-14 16:49N 40°38' W 074°12'0 0.0
2017-Dec-14 16:28N 40°38' W 074°12'0 0.0
2017-Dec-14 15:55N 40°38' W 074°12'4 3.9
2017-Dec-14 15:00N 40°39' W 074°07'3 6.3
2017-Dec-14 14:31N 40°41' W 074°04'1 1.3
2017-Dec-14 14:00N 40°41' W 074°04'3 5.0
2017-Dec-14 13:30N 40°41' W 074°01'3 6.8
2017-Dec-14 13:01N 40°44' W 073°58'2 3.3
2017-Dec-14 12:30N 40°44' W 073°56'0 1.0
2017-Dec-14 12:00N 40°43' W 073°56'1 2.0
2017-Dec-14 11:30N 40°44' W 073°56'1 2.4
2017-Dec-14 11:00N 40°44' W 073°58'4 7.3
2017-Dec-14 10:30N 40°41' W 074°01'3 5.4
2017-Dec-14 10:00N 40°41' W 074°04'1 2.9
2017-Dec-14 09:31N 40°40' W 074°04'4 8.2
2017-Dec-14 09:00N 40°38' W 074°09'0 0.0
2017-Dec-13 01:22N 40°38' W 074°09'1 1.8
2017-Dec-13 01:00N 40°39' W 074°09'3 5.7
2017-Dec-13 00:30N 40°42' W 074°09'2 4.3
2017-Dec-13 00:00N 40°40' W 074°09'1 2.9
2017-Dec-12 23:30N 40°38' W 074°09'0 0.0
2017-Dec-12 22:48N 40°38' W 074°09'0 0.0
2017-Dec-12 22:23N 40°38' W 074°09'0 0.0
2017-Dec-12 21:59N 40°38' W 074°09'0 0.0
2017-Dec-12 21:29N 40°38' W 074°09'0 0.0
2017-Dec-12 20:59N 40°38' W 074°09'0 0.0
2017-Dec-12 20:29N 40°38' W 074°09'0 0.0
2017-Dec-12 19:59N 40°38' W 074°09'0 0.0
2017-Dec-12 19:23N 40°38' W 074°09'0 0.0
2017-Dec-12 18:53N 40°38' W 074°09'0 0.0
2017-Dec-12 18:26N 40°38' W 074°09'0 0.0
2017-Dec-12 17:53N 40°38' W 074°09'0 0.0
2017-Dec-12 17:17N 40°38' W 074°09'0 0.0
2017-Dec-12 16:59N 40°38' W 074°09'0 0.0
2017-Dec-12 16:29N 40°38' W 074°09'0 0.0
2017-Dec-12 15:59N 40°38' W 074°09'0 0.0
2017-Dec-12 15:26N 40°38' W 074°09'0 0.0
2017-Dec-12 14:44N 40°38' W 074°09'0 0.0
2017-Dec-12 14:20N 40°38' W 074°09'0 0.0
2017-Dec-12 13:56N 40°38' W 074°09'0 0.0
2017-Dec-12 13:29N 40°38' W 074°09'0 0.0
2017-Dec-12 12:56N 40°38' W 074°09'0 0.0
2017-Dec-12 12:20N 40°38' W 074°09'0 0.0
2017-Dec-12 11:59N 40°38' W 074°09'0 0.0
2017-Dec-12 11:17N 40°38' W 074°09'0 0.0
2017-Dec-12 10:53N 40°38' W 074°09'0 0.0
2017-Dec-12 10:26N 40°38' W 074°09'0 0.0
2017-Dec-12 09:53N 40°38' W 074°09'0 0.0
2017-Dec-12 09:29N 40°38' W 074°09'0 0.0
2017-Dec-12 08:56N 40°38' W 074°09'0 0.0
2017-Dec-12 08:29N 40°38' W 074°09'0 0.0
2017-Dec-12 07:53N 40°38' W 074°09'0 0.0
2017-Dec-12 07:23N 40°38' W 074°09'0 0.0
2017-Dec-12 06:56N 40°38' W 074°09'0 0.0
2017-Dec-12 06:29N 40°38' W 074°09'0 0.0
2017-Dec-12 05:50N 40°38' W 074°09'0 0.0
2017-Dec-12 05:26N 40°38' W 074°09'0 0.0
2017-Dec-12 04:47N 40°38' W 074°09'0 0.0
2017-Dec-12 04:29N 40°38' W 074°09'0 0.0
2017-Dec-12 03:59N 40°38' W 074°09'0 0.0
2017-Dec-12 03:23N 40°38' W 074°09'1 1.6
2017-Dec-12 02:59N 40°39' W 074°09'3 5.9
2017-Dec-12 02:30N 40°42' W 074°09'2 3.0
2017-Dec-12 02:00N 40°40' W 074°08'2 3.4
2017-Dec-12 01:30N 40°39' W 074°08'2 4.1
2017-Dec-12 01:00N 40°39' W 074°06'2 4.5
2017-Dec-12 00:30N 40°40' W 074°03'3 5.6
2017-Dec-12 00:00N 40°42' W 074°00'3 6.1
2017-Dec-11 23:30N 40°44' W 073°58'2 3.5
2017-Dec-11 23:00N 40°43' W 073°56'0 0.9
2017-Dec-11 22:30N 40°43' W 073°56'1 1.3
2017-Dec-11 21:59N 40°44' W 073°56'1 1.5
2017-Dec-11 21:30N 40°43' W 073°56'1 1.4
2017-Dec-11 21:00N 40°44' W 073°56'1 2.9
2017-Dec-11 20:30N 40°44' W 073°58'4 7.4
2017-Dec-11 20:00N 40°41' W 074°01'3 7.0
2017-Dec-11 19:30N 40°39' W 074°04'3 6.2
2017-Dec-11 19:00N 40°39' W 074°08'  
2017-Dec-08 13:19N 40°38' W 074°09'3 7.9
2017-Dec-08 13:00N 40°41' W 074°08'1 2.7
2017-Dec-08 12:30N 40°42' W 074°09'4 6.1
2017-Dec-08 11:55N 40°38' W 074°09'0 0.0
2017-Dec-08 11:25N 40°38' W 074°09'0 0.0
2017-Dec-08 10:54N 40°38' W 074°09'3 7.2
2017-Dec-08 10:30N 40°41' W 074°08'1 2.2
2017-Dec-08 10:00N 40°42' W 074°09'2 3.5
2017-Dec-08 09:31N 40°40' W 074°08'2 3.0
2017-Dec-08 09:00N 40°39' W 074°08'2 4.4
2017-Dec-08 08:30N 40°39' W 074°05'2 4.7
2017-Dec-08 08:01N 40°40' W 074°03'3 6.7
2017-Dec-08 07:30N 40°42' W 073°59'3 5.1
2017-Dec-08 07:00N 40°44' W 073°57'2 3.0
2017-Dec-08 06:30N 40°43' W 073°55'0 0.5
2017-Dec-08 06:00N 40°43' W 073°56'1 1.3
2017-Dec-08 05:30N 40°44' W 073°56'1 1.4
2017-Dec-08 05:01N 40°43' W 073°56'1 1.4
2017-Dec-08 04:30N 40°44' W 073°56'1 2.9
2017-Dec-08 04:00N 40°44' W 073°58'4 8.2
2017-Dec-08 03:31N 40°41' W 074°02'3 6.4
2017-Dec-08 03:00N 40°39' W 074°05'3 5.2
2017-Dec-08 02:30N 40°38' W 074°09'3 5.6
2017-Dec-08 02:00N 40°38' W 074°12'3 6.7
2017-Dec-08 01:30N 40°34' W 074°13'1 2.2
2017-Dec-08 00:57N 40°34' W 074°14'3 7.1
2017-Dec-08 00:29N 40°37' W 074°12'3 5.7
2017-Dec-08 00:00N 40°38' W 074°09'0 0.0
2017-Dec-07 23:07N 40°38' W 074°09'0 0.0
2017-Dec-07 22:55N 40°38' W 074°09'0 0.0
2017-Dec-07 22:19N 40°38' W 074°09'0 0.0
2017-Dec-07 21:55N 40°38' W 074°09'0 0.0
2017-Dec-07 21:25N 40°38' W 074°09'0 0.0
2017-Dec-07 20:55N 40°38' W 074°09'0 0.0
2017-Dec-07 20:25N 40°38' W 074°09'0 0.0
2017-Dec-07 19:55N 40°38' W 074°09'0 0.0
2017-Dec-07 19:25N 40°38' W 074°09'0 0.0
2017-Dec-07 18:58N 40°38' W 074°09'0 0.0
2017-Dec-07 18:07N 40°38' W 074°09'0 0.0
2017-Dec-07 17:58N 40°38' W 074°09'0 0.0
2017-Dec-07 17:07N 40°38' W 074°09'0 0.0
2017-Dec-07 16:58N 40°38' W 074°09'0 0.0
2017-Dec-07 16:28N 40°38' W 074°09'0 0.0
2017-Dec-07 15:58N 40°38' W 074°09'0 0.0
2017-Dec-07 15:28N 40°38' W 074°09'0 0.0
2017-Dec-07 14:58N 40°38' W 074°09'0 0.0
2017-Dec-07 14:28N 40°38' W 074°09'0 0.0
2017-Dec-07 13:58N 40°38' W 074°09'0 0.0
2017-Dec-07 13:28N 40°38' W 074°09'0 0.0
2017-Dec-07 12:58N 40°38' W 074°09'0 0.0
2017-Dec-07 12:28N 40°38' W 074°09'0 0.0
2017-Dec-07 11:58N 40°38' W 074°09'0 0.0
2017-Dec-07 11:28N 40°38' W 074°09'0 0.0
2017-Dec-07 10:55N 40°38' W 074°09'0 0.0
2017-Dec-07 10:28N 40°38' W 074°09'0 0.0
2017-Dec-07 09:58N 40°38' W 074°09'0 0.0
2017-Dec-07 09:28N 40°38' W 074°09'0 0.0
2017-Dec-07 08:58N 40°38' W 074°09'0 0.0
2017-Dec-07 08:28N 40°38' W 074°09'0 0.0
2017-Dec-07 07:55N 40°38' W 074°09'0 0.0
2017-Dec-07 07:25N 40°38' W 074°09'0 0.0
2017-Dec-07 06:58N 40°38' W 074°09'0 0.0
2017-Dec-07 06:28N 40°38' W 074°09'0 0.0
2017-Dec-07 05:58N 40°38' W 074°09'0 0.0
2017-Dec-07 05:28N 40°38' W 074°09'0 0.0
2017-Dec-07 04:58N 40°38' W 074°09'0 0.0
2017-Dec-07 04:19N 40°38' W 074°09'0 0.0
2017-Dec-07 03:58N 40°38' W 074°09'0 0.0
2017-Dec-07 03:28N 40°38' W 074°09'0 0.0
2017-Dec-07 02:55N 40°38' W 074°09'0 0.0
2017-Dec-07 02:28N 40°38' W 074°09'0 0.0
2017-Dec-07 01:58N 40°38' W 074°09'0 0.0
2017-Dec-07 01:25N 40°38' W 074°09'0 0.0
2017-Dec-07 00:58N 40°38' W 074°09'0 0.0
2017-Dec-07 00:28N 40°38' W 074°09'0 0.0
2017-Dec-06 23:52N 40°38' W 074°09'0 0.0
2017-Dec-06 23:19N 40°38' W 074°09'0 0.0
2017-Dec-06 22:52N 40°38' W 074°09'0 0.0
2017-Dec-06 22:19N 40°38' W 074°09'0 0.0
2017-Dec-06 21:55N 40°38' W 074°09'0 0.0
2017-Dec-06 21:07N 40°38' W 074°09'0 0.0
2017-Dec-06 20:55N 40°38' W 074°09'  
Track history (hours):
 
Tides and Currents Weather Stations Pressure Air Temp Water Temp Dewpoint Dewpoint Depression Visibility Wind Speed Wind Dir Waves Ship Positions

Eric R. Thornton

Owner: Marine Steel Transport Line, LLC, Allendale, NJ. More information available from US FCC via Universal Licensing System and Coast Guard Vessel Documentation Center.

Last reported at 2017-Dec-16 02:39 UTC. Time now 2017-Dec-17 23:35 UTC.
Position N 40°38' W 074°09'.

Length 29 m; draft 3.2 m.

Type: Tug. MMSI: 367611450.

Date/timePositionNaut miles runAvg speedWind from/ knotsBaromVisibWave heightAir tempDewpointWater temp
2017-Dec-16 02:39N 40°38' W 074°09'0 0.5
2017-Dec-16 02:30N 40°38' W 074°09'3 6.4
2017-Dec-16 02:00N 40°41' W 074°08'1 1.2
2017-Dec-16 01:30N 40°42' W 074°09'1 2.9
2017-Dec-16 01:00N 40°40' W 074°08'2 4.6
2017-Dec-16 00:30N 40°38' W 074°09'0 0.0
2017-Dec-15 23:54N 40°38' W 074°09'0 0.0
2017-Dec-15 22:01N 40°38' W 074°09'0 0.0
2017-Dec-15 21:55N 40°38' W 074°09'0 0.0
2017-Dec-15 21:25N 40°38' W 074°09'0 0.0
2017-Dec-15 20:49N 40°38' W 074°09'0 0.0
2017-Dec-15 20:25N 40°38' W 074°09'0 0.0
2017-Dec-15 19:55N 40°38' W 074°09'0 0.0
2017-Dec-15 19:19N 40°38' W 074°09'0 0.0
2017-Dec-15 17:52N 40°38' W 074°09'0 0.0
2017-Dec-15 17:28N 40°38' W 074°09'0 0.0
2017-Dec-15 16:55N 40°38' W 074°09'0 0.0
2017-Dec-15 16:25N 40°38' W 074°09'0 0.0
2017-Dec-15 15:43N 40°38' W 074°09'0 0.0
2017-Dec-15 15:28N 40°38' W 074°09'0 0.0
2017-Dec-15 14:58N 40°38' W 074°09'0 0.0
2017-Dec-15 14:22N 40°38' W 074°09'0 0.0
2017-Dec-15 13:58N 40°38' W 074°09'0 0.0
2017-Dec-15 12:28N 40°38' W 074°09'0 0.0
2017-Dec-15 11:58N 40°38' W 074°09'0 0.0
2017-Dec-15 11:28N 40°38' W 074°09'0 0.0
2017-Dec-15 10:52N 40°38' W 074°09'0 0.0
2017-Dec-15 10:22N 40°38' W 074°09'0 0.0
2017-Dec-15 09:58N 40°38' W 074°09'0 0.0
2017-Dec-15 09:22N 40°38' W 074°09'0 0.0
2017-Dec-15 08:58N 40°38' W 074°09'0 0.0
2017-Dec-15 08:28N 40°38' W 074°09'0 0.0
2017-Dec-15 07:58N 40°38' W 074°09'0 0.0
2017-Dec-15 07:28N 40°38' W 074°09'0 0.0
2017-Dec-15 06:58N 40°38' W 074°09'0 0.0
2017-Dec-15 06:30N 40°38' W 074°09'2 4.7
2017-Dec-15 06:00N 40°40' W 074°08'1 2.0
2017-Dec-15 05:30N 40°41' W 074°08'3 5.2
2017-Dec-15 05:00N 40°39' W 074°09'2 4.7
2017-Dec-15 04:30N 40°39' W 074°06'3 5.3
2017-Dec-15 04:01N 40°40' W 074°03'6 4.1
2017-Dec-15 02:30N 40°43' W 073°56'0 0.1
2017-Dec-15 01:00N 40°43' W 073°55'0 0.5
2017-Dec-15 00:30N 40°43' W 073°56'12 1.9
2017-Dec-14 18:21N 40°38' W 074°09'0 1.1
2017-Dec-14 18:00N 40°39' W 074°10'1 2.8
2017-Dec-14 17:28N 40°38' W 074°12'0 0.1
2017-Dec-14 16:49N 40°38' W 074°12'0 0.0
2017-Dec-14 16:28N 40°38' W 074°12'0 0.0
2017-Dec-14 15:55N 40°38' W 074°12'4 3.9
2017-Dec-14 15:00N 40°39' W 074°07'3 6.3
2017-Dec-14 14:31N 40°41' W 074°04'1 1.3
2017-Dec-14 14:00N 40°41' W 074°04'3 5.0
2017-Dec-14 13:30N 40°41' W 074°01'3 6.8
2017-Dec-14 13:01N 40°44' W 073°58'2 3.3
2017-Dec-14 12:30N 40°44' W 073°56'0 1.0
2017-Dec-14 12:00N 40°43' W 073°56'1 2.0
2017-Dec-14 11:30N 40°44' W 073°56'1 2.4
2017-Dec-14 11:00N 40°44' W 073°58'4 7.3
2017-Dec-14 10:30N 40°41' W 074°01'3 5.4
2017-Dec-14 10:00N 40°41' W 074°04'1 2.9
2017-Dec-14 09:31N 40°40' W 074°04'4 8.2
2017-Dec-14 09:00N 40°38' W 074°09'0 0.0
2017-Dec-13 01:22N 40°38' W 074°09'1 1.8
2017-Dec-13 01:00N 40°39' W 074°09'3 5.7
2017-Dec-13 00:30N 40°42' W 074°09'2 4.3
2017-Dec-13 00:00N 40°40' W 074°09'1 2.9
2017-Dec-12 23:30N 40°38' W 074°09'0 0.0
2017-Dec-12 22:48N 40°38' W 074°09'0 0.0
2017-Dec-12 22:23N 40°38' W 074°09'0 0.0
2017-Dec-12 21:59N 40°38' W 074°09'0 0.0
2017-Dec-12 21:29N 40°38' W 074°09'0 0.0
2017-Dec-12 20:59N 40°38' W 074°09'0 0.0
2017-Dec-12 20:29N 40°38' W 074°09'0 0.0
2017-Dec-12 19:59N 40°38' W 074°09'0 0.0
2017-Dec-12 19:23N 40°38' W 074°09'0 0.0
2017-Dec-12 18:53N 40°38' W 074°09'0 0.0
2017-Dec-12 18:26N 40°38' W 074°09'0 0.0
2017-Dec-12 17:53N 40°38' W 074°09'0 0.0
2017-Dec-12 17:17N 40°38' W 074°09'0 0.0
2017-Dec-12 16:59N 40°38' W 074°09'0 0.0
2017-Dec-12 16:29N 40°38' W 074°09'0 0.0
2017-Dec-12 15:59N 40°38' W 074°09'0 0.0
2017-Dec-12 15:26N 40°38' W 074°09'0 0.0
2017-Dec-12 14:44N 40°38' W 074°09'0 0.0
2017-Dec-12 14:20N 40°38' W 074°09'0 0.0
2017-Dec-12 13:56N 40°38' W 074°09'0 0.0
2017-Dec-12 13:29N 40°38' W 074°09'0 0.0
2017-Dec-12 12:56N 40°38' W 074°09'0 0.0
2017-Dec-12 12:20N 40°38' W 074°09'0 0.0
2017-Dec-12 11:59N 40°38' W 074°09'0 0.0
2017-Dec-12 11:17N 40°38' W 074°09'0 0.0
2017-Dec-12 10:53N 40°38' W 074°09'0 0.0
2017-Dec-12 10:26N 40°38' W 074°09'0 0.0
2017-Dec-12 09:53N 40°38' W 074°09'0 0.0
2017-Dec-12 09:29N 40°38' W 074°09'0 0.0
2017-Dec-12 08:56N 40°38' W 074°09'0 0.0
2017-Dec-12 08:29N 40°38' W 074°09'0 0.0
2017-Dec-12 07:53N 40°38' W 074°09'0 0.0
2017-Dec-12 07:23N 40°38' W 074°09'0 0.0
2017-Dec-12 06:56N 40°38' W 074°09'0 0.0
2017-Dec-12 06:29N 40°38' W 074°09'0 0.0
2017-Dec-12 05:50N 40°38' W 074°09'0 0.0
2017-Dec-12 05:26N 40°38' W 074°09'0 0.0
2017-Dec-12 04:47N 40°38' W 074°09'0 0.0
2017-Dec-12 04:29N 40°38' W 074°09'0 0.0
2017-Dec-12 03:59N 40°38' W 074°09'0 0.0
2017-Dec-12 03:23N 40°38' W 074°09'1 1.6
2017-Dec-12 02:59N 40°39' W 074°09'3 5.9
2017-Dec-12 02:30N 40°42' W 074°09'2 3.0
2017-Dec-12 02:00N 40°40' W 074°08'2 3.4
2017-Dec-12 01:30N 40°39' W 074°08'2 4.1
2017-Dec-12 01:00N 40°39' W 074°06'2 4.5
2017-Dec-12 00:30N 40°40' W 074°03'3 5.6
2017-Dec-12 00:00N 40°42' W 074°00'3 6.1
2017-Dec-11 23:30N 40°44' W 073°58'2 3.5
2017-Dec-11 23:00N 40°43' W 073°56'0 0.9
2017-Dec-11 22:30N 40°43' W 073°56'1 1.3
2017-Dec-11 21:59N 40°44' W 073°56'1 1.5
2017-Dec-11 21:30N 40°43' W 073°56'1 1.4
2017-Dec-11 21:00N 40°44' W 073°56'1 2.9
2017-Dec-11 20:30N 40°44' W 073°58'4 7.4
2017-Dec-11 20:00N 40°41' W 074°01'3 7.0
2017-Dec-11 19:30N 40°39' W 074°04'3 6.2
2017-Dec-11 19:00N 40°39' W 074°08'  
2017-Dec-08 13:19N 40°38' W 074°09'3 7.9
2017-Dec-08 13:00N 40°41' W 074°08'1 2.7
2017-Dec-08 12:30N 40°42' W 074°09'4 6.1
2017-Dec-08 11:55N 40°38' W 074°09'0 0.0
2017-Dec-08 11:25N 40°38' W 074°09'0 0.0
2017-Dec-08 10:54N 40°38' W 074°09'3 7.2
2017-Dec-08 10:30N 40°41' W 074°08'1 2.2
2017-Dec-08 10:00N 40°42' W 074°09'2 3.5
2017-Dec-08 09:31N 40°40' W 074°08'2 3.0
2017-Dec-08 09:00N 40°39' W 074°08'2 4.4
2017-Dec-08 08:30N 40°39' W 074°05'2 4.7
2017-Dec-08 08:01N 40°40' W 074°03'3 6.7
2017-Dec-08 07:30N 40°42' W 073°59'3 5.1
2017-Dec-08 07:00N 40°44' W 073°57'2 3.0
2017-Dec-08 06:30N 40°43' W 073°55'0 0.5
2017-Dec-08 06:00N 40°43' W 073°56'1 1.3
2017-Dec-08 05:30N 40°44' W 073°56'1 1.4
2017-Dec-08 05:01N 40°43' W 073°56'1 1.4
2017-Dec-08 04:30N 40°44' W 073°56'1 2.9
2017-Dec-08 04:00N 40°44' W 073°58'4 8.2
2017-Dec-08 03:31N 40°41' W 074°02'3 6.4
2017-Dec-08 03:00N 40°39' W 074°05'3 5.2
2017-Dec-08 02:30N 40°38' W 074°09'3 5.6
2017-Dec-08 02:00N 40°38' W 074°12'3 6.7
2017-Dec-08 01:30N 40°34' W 074°13'1 2.2
2017-Dec-08 00:57N 40°34' W 074°14'3 7.1
2017-Dec-08 00:29N 40°37' W 074°12'3 5.7
2017-Dec-08 00:00N 40°38' W 074°09'0 0.0
2017-Dec-07 23:07N 40°38' W 074°09'0 0.0
2017-Dec-07 22:55N 40°38' W 074°09'0 0.0
2017-Dec-07 22:19N 40°38' W 074°09'0 0.0
2017-Dec-07 21:55N 40°38' W 074°09'0 0.0
2017-Dec-07 21:25N 40°38' W 074°09'0 0.0
2017-Dec-07 20:55N 40°38' W 074°09'0 0.0
2017-Dec-07 20:25N 40°38' W 074°09'0 0.0
2017-Dec-07 19:55N 40°38' W 074°09'0 0.0
2017-Dec-07 19:25N 40°38' W 074°09'0 0.0
2017-Dec-07 18:58N 40°38' W 074°09'0 0.0
2017-Dec-07 18:07N 40°38' W 074°09'0 0.0
2017-Dec-07 17:58N 40°38' W 074°09'0 0.0
2017-Dec-07 17:07N 40°38' W 074°09'0 0.0
2017-Dec-07 16:58N 40°38' W 074°09'0 0.0
2017-Dec-07 16:28N 40°38' W 074°09'0 0.0
2017-Dec-07 15:58N 40°38' W 074°09'0 0.0
2017-Dec-07 15:28N 40°38' W 074°09'0 0.0
2017-Dec-07 14:58N 40°38' W 074°09'0 0.0
2017-Dec-07 14:28N 40°38' W 074°09'0 0.0
2017-Dec-07 13:58N 40°38' W 074°09'0 0.0
2017-Dec-07 13:28N 40°38' W 074°09'0 0.0
2017-Dec-07 12:58N 40°38' W 074°09'0 0.0
2017-Dec-07 12:28N 40°38' W 074°09'0 0.0
2017-Dec-07 11:58N 40°38' W 074°09'0 0.0
2017-Dec-07 11:28N 40°38' W 074°09'0 0.0
2017-Dec-07 10:55N 40°38' W 074°09'0 0.0
2017-Dec-07 10:28N 40°38' W 074°09'0 0.0
2017-Dec-07 09:58N 40°38' W 074°09'0 0.0
2017-Dec-07 09:28N 40°38' W 074°09'0 0.0
2017-Dec-07 08:58N 40°38' W 074°09'0 0.0
2017-Dec-07 08:28N 40°38' W 074°09'0 0.0
2017-Dec-07 07:55N 40°38' W 074°09'0 0.0
2017-Dec-07 07:25N 40°38' W 074°09'0 0.0
2017-Dec-07 06:58N 40°38' W 074°09'0 0.0
2017-Dec-07 06:28N 40°38' W 074°09'0 0.0
2017-Dec-07 05:58N 40°38' W 074°09'0 0.0
2017-Dec-07 05:28N 40°38' W 074°09'0 0.0
2017-Dec-07 04:58N 40°38' W 074°09'0 0.0
2017-Dec-07 04:19N 40°38' W 074°09'0 0.0
2017-Dec-07 03:58N 40°38' W 074°09'0 0.0
2017-Dec-07 03:28N 40°38' W 074°09'0 0.0
2017-Dec-07 02:55N 40°38' W 074°09'0 0.0
2017-Dec-07 02:28N 40°38' W 074°09'0 0.0
2017-Dec-07 01:58N 40°38' W 074°09'0 0.0
2017-Dec-07 01:25N 40°38' W 074°09'0 0.0
2017-Dec-07 00:58N 40°38' W 074°09'0 0.0
2017-Dec-07 00:28N 40°38' W 074°09'0 0.0
2017-Dec-06 23:52N 40°38' W 074°09'0 0.0
2017-Dec-06 23:19N 40°38' W 074°09'0 0.0
2017-Dec-06 22:52N 40°38' W 074°09'0 0.0
2017-Dec-06 22:19N 40°38' W 074°09'0 0.0
2017-Dec-06 21:55N 40°38' W 074°09'0 0.0
2017-Dec-06 21:07N 40°38' W 074°09'0 0.0
2017-Dec-06 20:55N 40°38' W 074°09'  

Dump ship's entire track history